createdAt,value
2022-09-10T00:01:30.017Z,18.87
2022-09-10T00:03:56.851Z,18.87
2022-09-10T00:06:27.867Z,18.72
2022-09-10T00:08:57.727Z,18.59
2022-09-10T00:11:31.121Z,18.51
2022-09-10T00:13:59.749Z,18.57
2022-09-10T00:16:27.650Z,18.55
2022-09-10T00:18:54.274Z,18.51
2022-09-10T00:21:21.710Z,18.47
2022-09-10T00:23:48.786Z,18.46
2022-09-10T00:26:27.491Z,18.49
2022-09-10T00:28:56.351Z,18.49
2022-09-10T00:31:24.077Z,18.51
2022-09-10T00:33:51.307Z,18.49
2022-09-10T00:36:24.176Z,18.51
2022-09-10T00:38:53.347Z,18.56
2022-09-10T00:41:22.481Z,18.63
2022-09-10T00:44:00.612Z,18.65
2022-09-10T00:46:33.550Z,18.65
2022-09-10T00:49:03.714Z,18.59
2022-09-10T00:51:33.590Z,18.59
2022-09-10T00:54:01.004Z,18.56
2022-09-10T00:56:28.905Z,18.56
2022-09-10T00:58:56.043Z,18.55
2022-09-10T01:01:23.191Z,18.52
2022-09-10T01:03:50.696Z,18.46
2022-09-10T01:06:18.418Z,18.40
2022-09-10T01:08:44.923Z,18.29
2022-09-10T01:11:34.989Z,18.24
2022-09-10T01:14:38.169Z,18.23
2022-09-10T01:17:34.395Z,18.27
2022-09-10T01:20:35.058Z,18.28
2022-09-10T01:23:19.704Z,18.25
2022-09-10T01:25:46.114Z,18.18
2022-09-10T01:28:25.414Z,18.10
2022-09-10T01:30:59.299Z,18.07
2022-09-10T01:33:30.950Z,18.07
2022-09-10T01:36:02.245Z,18.08
2022-09-10T01:38:32.486Z,18.02
2022-09-10T01:40:59.454Z,17.93
2022-09-10T01:43:26.009Z,17.93
2022-09-10T01:45:52.515Z,17.92
2022-09-10T01:48:45.449Z,17.95
2022-09-10T01:51:35.075Z,17.85
2022-09-10T01:54:29.431Z,17.77
2022-09-10T01:57:22.222Z,17.70
2022-09-10T02:00:09.330Z,17.66
2022-09-10T02:02:44.222Z,17.69
2022-09-10T02:05:12.350Z,17.72
2022-09-10T02:07:39.558Z,17.70
2022-09-10T02:10:09.121Z,17.66
2022-09-10T02:12:36.804Z,17.67
2022-09-10T02:15:05.298Z,17.65
2022-09-10T02:17:35.796Z,17.64
2022-09-10T02:20:04.288Z,17.64
2022-09-10T02:22:33.852Z,17.63
2022-09-10T02:25:00.402Z,17.54
2022-09-10T02:27:29.995Z,17.50
2022-09-10T02:29:59.629Z,17.43
2022-09-10T02:32:27.160Z,17.38
2022-09-10T02:34:53.658Z,17.37
2022-09-10T02:37:20.233Z,17.39
2022-09-10T02:39:46.829Z,17.40
2022-09-10T02:42:16.950Z,17.39
2022-09-10T02:44:44.824Z,17.40
2022-09-10T02:47:11.338Z,17.40
2022-09-10T02:49:37.819Z,17.38
2022-09-10T02:52:04.637Z,17.30
2022-09-10T02:54:31.165Z,17.24
2022-09-10T02:56:57.643Z,17.14
2022-09-10T02:59:25.135Z,17.12
2022-09-10T03:01:51.962Z,17.13
2022-09-10T03:04:18.510Z,17.17
2022-09-10T03:06:45.282Z,17.22
2022-09-10T03:09:11.760Z,17.13
2022-09-10T03:11:40.662Z,17.14
2022-09-10T03:14:10.266Z,17.14
2022-09-10T03:16:36.844Z,17.18
2022-09-10T03:19:03.575Z,17.12
2022-09-10T03:21:30.150Z,17.03
2022-09-10T03:23:57.324Z,16.97
2022-09-10T03:26:27.958Z,17.01
2022-09-10T03:28:54.470Z,16.99
2022-09-10T03:31:21.742Z,16.97
2022-09-10T03:33:49.176Z,16.91
2022-09-10T03:36:15.830Z,16.90
2022-09-10T03:38:42.760Z,16.90
2022-09-10T03:41:09.772Z,16.88
2022-09-10T03:43:36.346Z,16.90
2022-09-10T03:46:03.278Z,16.86
2022-09-10T03:48:29.992Z,16.85
2022-09-10T03:50:56.781Z,16.87
2022-09-10T03:53:23.908Z,16.89
2022-09-10T03:55:51.856Z,16.91
2022-09-10T03:58:19.227Z,16.91
2022-09-10T04:00:46.550Z,16.93
2022-09-10T04:03:14.558Z,16.91
2022-09-10T04:05:44.100Z,16.85
2022-09-10T04:08:12.220Z,16.76
2022-09-10T04:10:39.902Z,16.75
2022-09-10T04:13:07.140Z,16.77
2022-09-10T04:15:34.375Z,16.81
2022-09-10T04:18:01.076Z,16.83
2022-09-10T04:20:27.745Z,16.90
2022-09-10T04:22:55.101Z,16.90
2022-09-10T04:25:21.647Z,16.90
2022-09-10T04:27:49.040Z,16.92
2022-09-10T04:30:15.883Z,16.90
2022-09-10T04:32:42.819Z,16.87
2022-09-10T04:35:09.624Z,16.90
2022-09-10T04:37:36.114Z,16.90
2022-09-10T04:40:03.715Z,16.91
2022-09-10T04:42:31.883Z,16.92
2022-09-10T04:44:59.222Z,16.86
2022-09-10T04:47:26.188Z,16.86
2022-09-10T04:49:52.737Z,16.90
2022-09-10T04:52:22.694Z,16.87
2022-09-10T04:54:49.475Z,16.90
2022-09-10T04:57:16.091Z,16.94
2022-09-10T04:59:42.808Z,16.97
2022-09-10T05:02:09.376Z,16.94
2022-09-10T05:04:36.176Z,16.93
2022-09-10T05:07:02.685Z,16.94
2022-09-10T05:09:31.323Z,16.95
2022-09-10T05:11:58.222Z,16.96
2022-09-10T05:14:25.500Z,17.01
2022-09-10T05:16:52.493Z,17.01
2022-09-10T05:19:21.398Z,17.02
2022-09-10T05:21:48.534Z,17.00
2022-09-10T05:24:15.571Z,16.97
2022-09-10T05:26:42.677Z,16.99
2022-09-10T05:29:11.310Z,17.00
2022-09-10T05:31:37.926Z,17.10
2022-09-10T05:34:04.571Z,17.14
2022-09-10T05:36:32.088Z,17.19
2022-09-10T05:39:00.288Z,17.25
2022-09-10T05:41:28.144Z,17.34
2022-09-10T05:43:55.056Z,17.43
2022-09-10T05:46:22.347Z,17.44
2022-09-10T05:48:49.090Z,17.50
2022-09-10T05:51:15.932Z,17.57
2022-09-10T05:53:42.393Z,17.64
2022-09-10T05:56:09.284Z,17.67
2022-09-10T05:58:35.840Z,17.78
2022-09-10T06:01:02.467Z,17.89
2022-09-10T06:03:28.992Z,17.95
2022-09-10T06:05:55.714Z,18.04
2022-09-10T06:08:22.774Z,18.11
2022-09-10T06:10:57.355Z,18.13
2022-09-10T06:13:24.956Z,18.22
2022-09-10T06:15:51.886Z,18.37
2022-09-10T06:18:19.219Z,18.50
2022-09-10T06:20:47.791Z,18.67
2022-09-10T06:23:16.586Z,18.77
2022-09-10T06:25:43.445Z,18.73
2022-09-10T06:28:12.188Z,18.71
2022-09-10T06:30:39.411Z,18.76
2022-09-10T06:33:06.039Z,18.75
2022-09-10T06:35:33.311Z,18.74
2022-09-10T06:37:59.799Z,18.78
2022-09-10T06:40:29.663Z,18.66
2022-09-10T06:42:56.238Z,18.59
2022-09-10T06:45:22.732Z,18.56
2022-09-10T06:48:37.001Z,18.54
2022-09-10T06:50:36.944Z,18.51
2022-09-10T06:53:03.622Z,18.53
2022-09-10T06:55:30.164Z,18.53
2022-09-10T06:57:59.580Z,18.46
2022-09-10T07:00:26.043Z,18.45
2022-09-10T07:02:52.944Z,18.48
2022-09-10T07:05:19.445Z,18.50
2022-09-10T07:07:46.376Z,18.52
2022-09-10T07:10:12.879Z,18.54
2022-09-10T07:12:39.367Z,18.55
2022-09-10T07:15:06.246Z,18.60
2022-09-10T07:17:35.649Z,18.64
2022-09-10T07:20:02.927Z,18.65
2022-09-10T07:22:29.419Z,18.49
2022-09-10T07:24:56.098Z,18.45
2022-09-10T07:27:22.698Z,18.21
2022-09-10T07:29:49.595Z,18.19
2022-09-10T07:32:16.223Z,18.12
2022-09-10T07:34:43.125Z,18.07
2022-09-10T07:37:09.690Z,18.05
2022-09-10T07:39:36.223Z,17.88
2022-09-10T07:42:02.758Z,17.74
2022-09-10T07:44:29.365Z,17.60
2022-09-10T07:46:55.982Z,17.50
2022-09-10T07:49:22.445Z,17.42
2022-09-10T07:51:49.210Z,17.34
2022-09-10T07:54:17.305Z,17.23
2022-09-10T07:56:44.185Z,17.22
2022-09-10T07:59:11.685Z,17.23
2022-09-10T08:01:38.207Z,17.28
2022-09-10T08:04:06.237Z,17.35
2022-09-10T08:06:34.010Z,17.51
2022-09-10T08:09:00.479Z,17.67
2022-09-10T08:11:27.040Z,17.66
2022-09-10T08:13:54.519Z,17.70
2022-09-10T08:16:23.610Z,17.87
2022-09-10T08:18:51.389Z,18.02
2022-09-10T08:21:19.368Z,18.12
2022-09-10T08:23:51.059Z,18.29
2022-09-10T08:26:18.099Z,18.47
2022-09-10T08:28:44.665Z,18.66
2022-09-10T08:31:12.825Z,18.86
2022-09-10T08:33:40.187Z,19.05
2022-09-10T08:36:10.484Z,19.23
2022-09-10T08:38:39.851Z,19.28
2022-09-10T08:41:13.433Z,19.31
2022-09-10T08:43:41.807Z,19.39
2022-09-10T08:46:22.634Z,19.50
2022-09-10T08:49:00.598Z,19.58
2022-09-10T08:51:34.306Z,19.55
2022-09-10T08:54:10.194Z,19.47
2022-09-10T08:56:37.987Z,19.54
2022-09-10T08:59:33.352Z,19.60
2022-09-10T09:02:37.827Z,19.67
2022-09-10T09:05:09.589Z,19.66
2022-09-10T09:07:40.265Z,19.66
2022-09-10T09:10:42.682Z,19.63
2022-09-10T09:13:32.178Z,19.63
2022-09-10T09:16:28.799Z,19.65
2022-09-10T09:19:14.708Z,19.62
2022-09-10T09:21:54.679Z,19.68
2022-09-10T09:24:40.447Z,19.59
2022-09-10T09:27:13.968Z,19.56
2022-09-10T09:29:48.247Z,19.56
2022-09-10T09:32:17.223Z,19.62
2022-09-10T09:34:50.526Z,19.64
2022-09-10T09:37:21.418Z,19.71
2022-09-10T09:39:59.400Z,19.82
2022-09-10T09:42:39.843Z,19.92
2022-09-10T09:45:28.424Z,20.07
2022-09-10T09:47:55.900Z,20.16
2022-09-10T09:50:23.053Z,20.24
2022-09-10T09:52:55.141Z,20.33
2022-09-10T09:55:33.618Z,20.47
2022-09-10T09:58:21.622Z,20.57
2022-09-10T10:01:13.231Z,20.72
2022-09-10T10:03:48.548Z,20.84
2022-09-10T10:06:16.354Z,20.88
2022-09-10T10:08:46.050Z,20.99
2022-09-10T10:11:17.264Z,21.02
2022-09-10T10:13:48.099Z,21.08
2022-09-10T10:16:14.604Z,21.17
2022-09-10T10:18:43.043Z,21.22
2022-09-10T10:21:28.030Z,21.33
2022-09-10T10:23:54.868Z,21.41
2022-09-10T10:26:21.305Z,21.50
2022-09-10T10:28:53.986Z,21.59
2022-09-10T10:31:21.102Z,21.66
2022-09-10T10:34:09.637Z,21.85
2022-09-10T10:37:03.614Z,22.03
2022-09-10T10:39:48.568Z,22.18
2022-09-10T10:42:30.662Z,22.55
2022-09-10T10:45:16.706Z,22.94
2022-09-10T10:48:03.238Z,23.40
2022-09-10T10:51:03.380Z,23.63
2022-09-10T10:54:10.753Z,23.65
2022-09-10T10:56:59.935Z,23.70
2022-09-10T10:59:47.583Z,23.93
2022-09-10T11:02:19.911Z,23.88
2022-09-10T11:04:53.187Z,23.90
2022-09-10T11:07:29.651Z,23.79
2022-09-10T11:10:23.578Z,24.05
2022-09-10T11:13:22.198Z,24.45
2022-09-10T11:15:59.524Z,24.74
2022-09-10T11:18:34.271Z,25.03
2022-09-10T11:21:20.958Z,25.22
2022-09-10T11:24:00.501Z,25.59
2022-09-10T11:26:41.563Z,25.77
2022-09-10T11:29:32.250Z,25.89
2022-09-10T11:32:01.841Z,26.04
2022-09-10T11:34:35.468Z,26.22
2022-09-10T11:37:20.031Z,26.44
2022-09-10T11:39:52.452Z,26.68
2022-09-10T11:42:34.093Z,26.78
2022-09-10T11:45:36.729Z,26.65
2022-09-10T11:48:11.426Z,26.19
2022-09-10T11:50:46.715Z,26.42
2022-09-10T11:53:16.290Z,26.81
2022-09-10T11:56:05.058Z,26.93
2022-09-10T11:59:08.757Z,27.48
2022-09-10T12:02:10.669Z,27.81
2022-09-10T12:05:14.519Z,28.21
2022-09-10T12:07:53.840Z,27.97
2022-09-10T12:10:31.552Z,27.63
2022-09-10T12:12:58.895Z,26.93
2022-09-10T12:15:37.157Z,27.27
2022-09-10T12:18:13.936Z,27.98
2022-09-10T12:20:52.072Z,28.53
2022-09-10T12:23:28.118Z,28.91
2022-09-10T12:26:08.842Z,29.36
2022-09-10T12:28:41.747Z,29.57
2022-09-10T12:31:10.103Z,29.94
2022-09-10T12:34:09.094Z,30.38
2022-09-10T12:36:35.493Z,30.10
2022-09-10T12:39:25.855Z,30.07
2022-09-10T12:41:53.097Z,30.40
2022-09-10T12:44:25.367Z,30.65
2022-09-10T12:47:13.755Z,30.45
2022-09-10T12:50:01.170Z,30.35
2022-09-10T12:52:35.078Z,30.98
2022-09-10T12:55:28.944Z,31.39
2022-09-10T12:58:32.794Z,30.87
2022-09-10T13:01:11.128Z,30.00
2022-09-10T13:03:54.938Z,29.25
2022-09-10T13:06:35.871Z,28.75
2022-09-10T13:09:05.819Z,28.39
2022-09-10T13:11:35.772Z,27.83
2022-09-10T13:14:06.199Z,26.86
2022-09-10T13:16:32.855Z,26.60
2022-09-10T13:19:14.576Z,27.16
2022-09-10T13:21:41.039Z,27.78
2022-09-10T13:24:35.700Z,29.12
2022-09-10T13:27:17.375Z,30.34
2022-09-10T13:29:47.171Z,31.12
2022-09-10T13:32:37.543Z,31.04
2022-09-10T13:35:17.076Z,31.79
2022-09-10T13:37:59.365Z,32.49
2022-09-10T13:40:38.693Z,31.53
2022-09-10T13:43:05.481Z,31.35
2022-09-10T13:45:46.852Z,30.27
2022-09-10T13:48:23.859Z,29.63
2022-09-10T13:51:15.302Z,29.50
2022-09-10T13:53:46.956Z,29.00
2022-09-10T13:56:19.197Z,28.59
2022-09-10T13:58:52.153Z,28.87
2022-09-10T14:01:18.779Z,29.66
2022-09-10T14:03:45.501Z,30.41
2022-09-10T14:06:18.795Z,31.25
2022-09-10T14:08:50.514Z,31.56
2022-09-10T14:11:25.194Z,31.66
2022-09-10T14:14:06.352Z,31.59
2022-09-10T14:16:55.410Z,31.13
2022-09-10T14:19:21.851Z,31.04
2022-09-10T14:21:50.074Z,30.96
2022-09-10T14:24:30.617Z,30.69
2022-09-10T14:27:15.634Z,30.66
2022-09-10T14:29:42.963Z,31.14
2022-09-10T14:32:26.495Z,31.15
2022-09-10T14:34:53.036Z,30.65
2022-09-10T14:37:39.562Z,30.58
2022-09-10T14:40:20.875Z,30.31
2022-09-10T14:42:49.490Z,30.29
2022-09-10T14:45:42.511Z,30.83
2022-09-10T14:48:29.518Z,30.88
2022-09-10T14:51:12.827Z,30.65
2022-09-10T14:53:40.893Z,30.35
2022-09-10T14:56:22.350Z,30.68
2022-09-10T14:59:05.955Z,30.93
2022-09-10T15:01:32.717Z,31.47
2022-09-10T15:04:02.074Z,31.87
2022-09-10T15:06:28.730Z,31.87
2022-09-10T15:08:58.330Z,31.51
2022-09-10T15:11:28.179Z,31.90
2022-09-10T15:13:56.112Z,31.93
2022-09-10T15:16:25.826Z,32.04
2022-09-10T15:18:52.313Z,32.57
2022-09-10T15:21:19.394Z,32.53
2022-09-10T15:23:48.256Z,32.02
2022-09-10T15:26:15.215Z,32.49
2022-09-10T15:28:42.054Z,32.83
2022-09-10T15:31:09.244Z,32.91
2022-09-10T15:33:36.179Z,32.49
2022-09-10T15:36:03.340Z,32.15
2022-09-10T15:38:29.914Z,31.50
2022-09-10T15:41:08.347Z,31.50
2022-09-10T15:43:38.833Z,31.93
2022-09-10T15:46:06.611Z,31.17
2022-09-10T15:48:33.654Z,30.61
2022-09-10T15:51:02.767Z,30.19
2022-09-10T15:53:32.838Z,29.55
2022-09-10T15:56:05.393Z,29.63
2022-09-10T15:58:32.002Z,28.28
2022-09-10T16:01:07.488Z,27.68
2022-09-10T16:03:34.835Z,27.34
2022-09-10T16:06:03.271Z,27.01
2022-09-10T16:08:30.731Z,26.30
2022-09-10T16:10:57.911Z,25.83
2022-09-10T16:13:26.004Z,25.57
2022-09-10T16:16:03.363Z,25.33
2022-09-10T16:18:31.776Z,25.13
2022-09-10T16:21:18.485Z,25.14
2022-09-10T16:23:49.227Z,24.94
2022-09-10T16:26:19.906Z,24.55
2022-09-10T16:29:14.107Z,24.25
2022-09-10T16:31:41.075Z,24.21
2022-09-10T16:34:10.939Z,24.06
2022-09-10T16:36:39.202Z,23.97
2022-09-10T16:39:12.306Z,23.77
2022-09-10T16:41:40.355Z,23.55
2022-09-10T16:44:07.222Z,23.38
2022-09-10T16:46:34.366Z,23.37
2022-09-10T16:49:01.549Z,23.26
2022-09-10T16:51:28.870Z,23.25
2022-09-10T16:54:06.363Z,23.28
2022-09-10T16:56:40.013Z,23.18
2022-09-10T16:59:08.818Z,23.09
2022-09-10T17:01:36.642Z,22.96
2022-09-10T17:04:04.662Z,22.86
2022-09-10T17:06:31.795Z,22.65
2022-09-10T17:09:00.590Z,22.64
2022-09-10T17:11:32.738Z,22.56
2022-09-10T17:14:03.057Z,22.47
2022-09-10T17:16:37.754Z,22.53
2022-09-10T17:19:16.231Z,22.40
2022-09-10T17:21:44.928Z,22.17
2022-09-10T17:24:13.214Z,22.07
2022-09-10T17:26:41.283Z,22.00
2022-09-10T17:29:18.901Z,21.89
2022-09-10T17:31:49.383Z,21.84
2022-09-10T17:34:16.518Z,21.66
2022-09-10T17:36:45.417Z,21.45
2022-09-10T17:39:13.000Z,21.43
2022-09-10T17:41:40.491Z,21.23
2022-09-10T17:44:08.133Z,21.14
2022-09-10T17:46:36.075Z,21.10
2022-09-10T17:49:03.832Z,21.06
2022-09-10T17:51:32.686Z,21.02
2022-09-10T17:53:59.446Z,20.90
2022-09-10T17:56:27.019Z,20.85
2022-09-10T17:58:58.468Z,20.80
2022-09-10T18:01:27.586Z,20.67
2022-09-10T18:03:54.815Z,20.57
2022-09-10T18:06:22.151Z,20.46
2022-09-10T18:08:50.428Z,20.42
2022-09-10T18:11:22.714Z,20.34
2022-09-10T18:13:52.146Z,20.27
2022-09-10T18:16:22.271Z,20.20
2022-09-10T18:19:01.037Z,20.07
2022-09-10T18:21:31.310Z,20.08
2022-09-10T18:24:00.527Z,19.87
2022-09-10T18:26:29.361Z,19.69
2022-09-10T18:28:57.600Z,19.63
2022-09-10T18:31:25.029Z,19.66
2022-09-10T18:33:53.576Z,19.50
2022-09-10T18:36:20.586Z,19.50
2022-09-10T18:38:47.421Z,19.48
2022-09-10T18:41:36.010Z,19.35
2022-09-10T18:44:04.408Z,19.25
2022-09-10T18:46:32.987Z,19.10
2022-09-10T18:49:00.026Z,18.95
2022-09-10T18:51:28.453Z,18.83
2022-09-10T18:54:00.312Z,18.82
2022-09-10T18:56:30.146Z,18.74
2022-09-10T18:59:03.159Z,18.71
2022-09-10T19:01:31.174Z,18.67
2022-09-10T19:03:58.320Z,18.68
2022-09-10T19:06:36.608Z,18.69
2022-09-10T19:09:09.496Z,18.65
2022-09-10T19:11:39.339Z,18.65
2022-09-10T19:14:08.689Z,18.62
2022-09-10T19:16:36.219Z,18.63
2022-09-10T19:19:05.714Z,18.65
2022-09-10T19:21:35.310Z,18.69
2022-09-10T19:24:03.705Z,18.77
2022-09-10T19:26:33.295Z,18.79
2022-09-10T19:29:01.677Z,18.80
2022-09-10T19:31:30.078Z,18.78
2022-09-10T19:34:03.014Z,18.74
2022-09-10T19:36:31.711Z,18.77
2022-09-10T19:38:59.586Z,18.73
2022-09-10T19:41:26.253Z,18.66
2022-09-10T19:43:53.910Z,18.56
2022-09-10T19:46:22.561Z,18.52
2022-09-10T19:48:49.384Z,18.55
2022-09-10T19:51:20.117Z,18.55
2022-09-10T19:53:48.149Z,18.56
2022-09-10T19:56:20.948Z,18.52
2022-09-10T19:58:49.983Z,18.51
2022-09-10T20:01:19.794Z,18.50
2022-09-10T20:03:48.218Z,18.43
2022-09-10T20:06:18.334Z,18.39
2022-09-10T20:08:47.239Z,18.33
2022-09-10T20:11:16.823Z,18.34
2022-09-10T20:13:45.162Z,18.32
2022-09-10T20:16:13.000Z,18.35
2022-09-10T20:18:39.935Z,18.32
2022-09-10T20:21:21.078Z,18.25
2022-09-10T20:23:50.987Z,18.12
2022-09-10T20:26:22.550Z,18.02
2022-09-10T20:28:55.710Z,17.91
2022-09-10T20:31:24.003Z,17.91
2022-09-10T20:33:55.015Z,17.88
2022-09-10T20:36:22.857Z,17.85
2022-09-10T20:38:50.546Z,17.84
2022-09-10T20:41:17.237Z,17.80
2022-09-10T20:43:43.798Z,17.79
2022-09-10T20:46:15.927Z,17.68
2022-09-10T20:48:48.789Z,17.63
2022-09-10T20:51:20.501Z,17.56
2022-09-10T20:53:47.967Z,17.48
2022-09-10T20:56:18.066Z,17.39
2022-09-10T20:58:45.454Z,17.34
2022-09-10T21:01:17.414Z,17.28
2022-09-10T21:03:43.974Z,17.25
2022-09-10T21:06:11.894Z,17.22
2022-09-10T21:08:40.585Z,17.17
2022-09-10T21:11:16.113Z,17.14
2022-09-10T21:13:45.180Z,17.09
2022-09-10T21:16:14.639Z,17.08
2022-09-10T21:18:42.348Z,17.11
2022-09-10T21:21:14.316Z,17.12
2022-09-10T21:23:45.625Z,17.12
2022-09-10T21:26:13.582Z,17.13
2022-09-10T21:28:41.570Z,17.13
2022-09-10T21:31:09.525Z,17.15
2022-09-10T21:33:36.594Z,17.14
2022-09-10T21:36:06.407Z,17.15
2022-09-10T21:38:35.138Z,17.19
2022-09-10T21:41:03.692Z,17.18
2022-09-10T21:43:37.806Z,17.21
2022-09-10T21:46:05.630Z,17.18
2022-09-10T21:48:35.846Z,17.20
2022-09-10T21:51:05.792Z,17.20
2022-09-10T21:53:33.494Z,17.22
2022-09-10T21:56:01.515Z,17.28
2022-09-10T21:58:30.394Z,17.22
2022-09-10T22:00:58.560Z,17.23
2022-09-10T22:03:26.409Z,17.22
2022-09-10T22:05:52.948Z,17.19
2022-09-10T22:08:19.484Z,17.16
2022-09-10T22:10:46.374Z,17.13
2022-09-10T22:13:12.865Z,17.06
2022-09-10T22:15:40.503Z,17.06
2022-09-10T22:18:08.300Z,17.01
2022-09-10T22:20:36.322Z,16.98
2022-09-10T22:23:03.855Z,16.94
2022-09-10T22:25:31.206Z,16.88
2022-09-10T22:27:58.297Z,16.84
2022-09-10T22:30:27.810Z,16.77
2022-09-10T22:32:57.967Z,16.75
2022-09-10T22:35:26.156Z,16.73
2022-09-10T22:37:56.745Z,16.69
2022-09-10T22:40:24.464Z,16.67
2022-09-10T22:42:51.682Z,16.62
2022-09-10T22:45:20.749Z,16.58
2022-09-10T22:47:47.994Z,16.52
2022-09-10T22:50:15.286Z,16.46
2022-09-10T22:52:43.657Z,16.40
2022-09-10T22:55:10.434Z,16.33
2022-09-10T22:57:38.525Z,16.27
2022-09-10T23:00:06.122Z,16.17
2022-09-10T23:02:32.606Z,16.09
2022-09-10T23:04:59.913Z,16.05
2022-09-10T23:07:26.410Z,15.96
2022-09-10T23:09:52.897Z,15.93
2022-09-10T23:12:22.065Z,15.89
2022-09-10T23:14:48.619Z,15.84
2022-09-10T23:17:18.459Z,15.75
2022-09-10T23:19:47.162Z,15.75
2022-09-10T23:22:14.031Z,15.69
2022-09-10T23:24:40.598Z,15.68
2022-09-10T23:27:07.078Z,15.63
2022-09-10T23:29:33.581Z,15.59
2022-09-10T23:32:00.083Z,15.59
2022-09-10T23:34:26.615Z,15.53
2022-09-10T23:36:53.806Z,15.46
2022-09-10T23:39:22.714Z,15.43
2022-09-10T23:41:50.833Z,15.36
2022-09-10T23:44:17.674Z,15.30
2022-09-10T23:46:48.073Z,15.25
2022-09-10T23:49:14.954Z,15.22
2022-09-10T23:51:41.698Z,15.19
2022-09-10T23:54:09.991Z,15.13
2022-09-10T23:56:37.185Z,15.04
2022-09-10T23:59:03.833Z,14.95
